Time;durP1;ratioP1;P1;durP2;ratioP2;P2;SDS_P1;SDS_P2;PMS_P1;PMS_P2;Temp;Humidity;BMP_temperature;BMP_pressure;BME280_temperature;BME280_humidity;BME280_pressure;Samples;Min_cycle;Max_cycle;Signal;HPM_P1;HPM_P2
2021/04/17 00:00:10;;;;;;;9.82;4.07;;;15.90;54.60;;;;;;5012492;28;20033;-61
2021/04/17 00:02:35;;;;;;;11.30;4.25;;;15.80;54.40;;;;;;5012667;28;20026;-63
2021/04/17 00:05:01;;;;;;;8.52;3.78;;;15.80;54.40;;;;;;5012083;28;20036;-63
2021/04/17 00:07:27;;;;;;;9.38;4.25;;;15.80;54.50;;;;;;5012957;28;20121;-63
2021/04/17 00:09:52;;;;;;;9.43;4.13;;;15.90;54.50;;;;;;5012875;28;20055;-62
2021/04/17 00:12:20;;;;;;;9.15;4.15;;;15.80;54.50;;;;;;5011326;28;20022;-63
2021/04/17 00:14:48;;;;;;;12.57;3.95;;;15.80;54.60;;;;;;5011895;28;20041;-62
2021/04/17 00:17:16;;;;;;;8.88;4.43;;;15.80;54.50;;;;;;5012964;28;20037;-62
2021/04/17 00:19:43;;;;;;;7.82;3.65;;;15.80;54.40;;;;;;5010444;28;20065;-62
2021/04/17 00:22:09;;;;;;;7.65;3.78;;;15.80;54.40;;;;;;5012633;28;20065;-62
2021/04/17 00:24:35;;;;;;;8.05;3.95;;;15.70;54.50;;;;;;5010365;28;20053;-65
2021/04/17 00:27:02;;;;;;;8.95;3.63;;;15.70;54.40;;;;;;5012785;28;20029;-65
2021/04/17 00:29:28;;;;;;;7.57;3.40;;;15.70;54.50;;;;;;5011268;28;20109;-64
2021/04/17 00:31:53;;;;;;;8.73;3.65;;;15.70;54.30;;;;;;5012816;28;20167;-62
2021/04/17 00:34:19;;;;;;;8.02;3.50;;;15.70;54.50;;;;;;5009327;28;20030;-65
2021/04/17 00:36:44;;;;;;;7.80;3.75;;;15.70;54.60;;;;;;5012669;28;20037;-62
2021/04/17 00:39:10;;;;;;;8.50;3.97;;;15.70;54.50;;;;;;5012503;28;20395;-64
2021/04/17 00:41:36;;;;;;;7.47;3.22;;;15.70;54.40;;;;;;5011972;28;20033;-65
2021/04/17 00:44:02;;;;;;;9.20;3.50;;;15.70;54.40;;;;;;5009411;28;20030;-62
2021/04/17 00:46:28;;;;;;;7.75;3.38;;;15.70;54.50;;;;;;5012125;28;20029;-65
2021/04/17 00:48:54;;;;;;;6.75;3.17;;;15.60;54.30;;;;;;5000354;28;20738;-62
2021/04/17 00:51:19;;;;;;;6.90;3.30;;;15.70;54.30;;;;;;4992861;28;20130;-63
2021/04/17 00:53:45;;;;;;;9.93;3.63;;;15.70;54.30;;;;;;5009800;28;20113;-63
2021/04/17 00:56:12;;;;;;;9.52;3.80;;;15.70;54.30;;;;;;5012334;28;20026;-65
2021/04/17 00:58:39;;;;;;;7.63;3.40;;;15.70;54.50;;;;;;4999389;28;20434;-64
2021/04/17 01:01:06;;;;;;;6.90;3.38;;;15.60;54.30;;;;;;5012032;28;20032;-62
2021/04/17 01:03:54;;;;;;;6.50;3.05;;;15.60;54.40;;;;;;5010008;28;20022;-63
2021/04/17 01:06:24;;;;;;;7.43;3.15;;;15.70;54.30;;;;;;5011648;28;20058;-65
2021/04/17 01:08:58;;;;;;;8.52;3.42;;;15.60;54.30;;;;;;5011082;28;20026;-62
2021/04/17 01:11:43;;;;;;;6.82;3.30;;;15.60;54.40;;;;;;5011782;28;20057;-62
2021/04/17 01:14:10;;;;;;;8.45;3.30;;;15.60;54.30;;;;;;5011572;28;20042;-63
2021/04/17 01:16:36;;;;;;;8.00;2.90;;;15.60;54.30;;;;;;5012093;28;20026;-62
2021/04/17 01:19:07;;;;;;;7.90;3.30;;;15.60;54.30;;;;;;5008660;28;20053;-64
2021/04/17 01:21:33;;;;;;;6.47;3.00;;;15.60;54.20;;;;;;5011752;28;20576;-63
2021/04/17 01:24:09;;;;;;;7.75;2.97;;;15.60;54.20;;;;;;5010970;28;20030;-63
2021/04/17 01:26:35;;;;;;;7.07;2.80;;;15.60;54.40;;;;;;5011820;28;20026;-62
2021/04/17 01:29:00;;;;;;;6.93;3.00;;;15.60;54.30;;;;;;5010334;28;20714;-62
2021/04/17 01:31:32;;;;;;;7.38;2.97;;;15.60;54.40;;;;;;5011471;28;20109;-63
2021/04/17 01:34:01;;;;;;;7.07;2.65;;;15.50;54.40;;;;;;5009677;28;20391;-63
2021/04/17 01:36:28;;;;;;;7.15;3.00;;;15.50;54.30;;;;;;5010329;28;20399;-62
2021/04/17 01:39:04;;;;;;;6.45;2.65;;;15.50;54.40;;;;;;5011736;28;20026;-62
2021/04/17 01:41:37;;;;;;;6.13;2.80;;;15.50;54.50;;;;;;5007163;28;20014;-65
2021/04/17 01:44:08;;;;;;;6.85;2.70;;;15.50;54.50;;;;;;5011164;28;20088;-62
2021/04/17 01:46:43;;;;;;;5.97;2.45;;;15.50;54.30;;;;;;5011642;28;20032;-65
2021/04/17 01:49:12;;;;;;;4.97;2.20;;;15.50;54.40;;;;;;5011565;28;20026;-62
2021/04/17 01:51:40;;;;;;;6.65;2.80;;;15.50;54.40;;;;;;5011737;28;20053;-62
2021/04/17 01:54:21;;;;;;;5.95;2.58;;;15.50;54.40;;;;;;5010600;28;20521;-63
2021/04/17 01:56:48;;;;;;;5.47;2.60;;;15.40;54.40;;;;;;5001179;28;20045;-62
2021/04/17 01:59:16;;;;;;;5.45;2.22;;;15.40;54.40;;;;;;5006135;28;20034;-63
2021/04/17 02:01:42;;;;;;;7.28;2.53;;;15.40;54.40;;;;;;5003416;28;20400;-62
2021/04/17 02:04:08;;;;;;;8.02;2.45;;;15.40;54.50;;;;;;4991559;28;20034;-62
2021/04/17 02:06:34;;;;;;;4.90;2.17;;;15.40;54.50;;;;;;4991848;28;20027;-62
2021/04/17 02:09:00;;;;;;;4.70;2.40;;;15.40;54.40;;;;;;4994388;28;20022;-62
2021/04/17 02:11:26;;;;;;;6.80;2.50;;;15.40;54.40;;;;;;5014834;28;20022;-64
2021/04/17 02:13:51;;;;;;;6.32;2.53;;;15.40;54.30;;;;;;5015009;28;20026;-62
2021/04/17 02:16:23;;;;;;;6.78;2.33;;;15.40;54.40;;;;;;5015167;28;20029;-62
2021/04/17 02:19:00;;;;;;;6.32;2.70;;;15.40;54.40;;;;;;5014518;28;20025;-63
2021/04/17 02:21:38;;;;;;;5.25;2.25;;;15.30;54.40;;;;;;5011661;28;20060;-63
2021/04/17 02:24:06;;;;;;;6.30;2.10;;;15.40;54.50;;;;;;5013763;28;20026;-62
2021/04/17 02:26:33;;;;;;;5.85;2.58;;;15.30;54.40;;;;;;5013220;28;20025;-62
2021/04/17 02:28:58;;;;;;;5.45;2.35;;;15.30;54.60;;;;;;5014803;28;20034;-63
2021/04/17 02:31:26;;;;;;;6.35;2.40;;;15.30;54.50;;;;;;5014554;28;20052;-63
2021/04/17 02:33:52;;;;;;;4.78;2.17;;;15.30;54.60;;;;;;5013415;28;20045;-63
2021/04/17 02:36:18;;;;;;;6.28;2.22;;;15.30;54.70;;;;;;5012997;28;20476;-63
2021/04/17 02:38:43;;;;;;;6.03;2.38;;;15.30;54.70;;;;;;4995035;28;20030;-64
2021/04/17 02:41:11;;;;;;;7.18;2.40;;;15.30;54.60;;;;;;4995294;28;20029;-62
2021/04/17 02:43:36;;;;;;;5.13;2.22;;;15.20;54.60;;;;;;4993544;28;20053;-61
2021/04/17 02:46:02;;;;;;;5.93;2.50;;;15.30;54.70;;;;;;5027825;23;20069;-71
2021/04/17 02:48:28;;;;;;;5.93;2.50;;;15.20;54.70;;;;;;5013180;28;20458;-71
2021/04/17 02:50:53;;;;;;;5.28;2.20;;;15.10;54.80;;;;;;5014666;28;20091;-72
2021/04/17 02:53:19;;;;;;;4.70;2.00;;;15.20;54.90;;;;;;5012300;28;20411;-71
2021/04/17 02:55:44;;;;;;;6.18;2.28;;;15.20;54.90;;;;;;5014423;28;20034;-71
2021/04/17 02:58:10;;;;;;;5.57;2.15;;;15.20;54.90;;;;;;5011511;28;20065;-72
2021/04/17 03:00:35;;;;;;;6.68;2.13;;;15.20;54.80;;;;;;4993146;28;20061;-72
2021/04/17 03:03:01;;;;;;;4.72;2.13;;;15.20;54.70;;;;;;4994098;28;20030;-71
2021/04/17 03:05:27;;;;;;;7.10;2.38;;;15.20;54.80;;;;;;4994566;28;20030;-71
2021/04/17 03:07:52;;;;;;;6.22;2.05;;;15.20;54.70;;;;;;4994536;28;20026;-71
2021/04/17 03:10:18;;;;;;;4.97;2.40;;;15.10;54.80;;;;;;5004060;28;20022;-71
2021/04/17 03:12:44;;;;;;;5.18;2.30;;;15.10;54.70;;;;;;4993074;28;20030;-71
2021/04/17 03:15:10;;;;;;;7.10;2.25;;;15.10;54.70;;;;;;4993054;28;20038;-71
2021/04/17 03:17:36;;;;;;;4.78;1.80;;;15.10;54.70;;;;;;4993173;28;20084;-71
2021/04/17 03:20:04;;;;;;;5.10;1.95;;;15.10;55.00;;;;;;4993041;28;20030;-72
2021/04/17 03:22:29;;;;;;;6.28;2.10;;;15.10;55.00;;;;;;5000761;28;20026;-72
2021/04/17 03:24:55;;;;;;;7.43;2.38;;;15.00;55.00;;;;;;5004726;28;20057;-71
2021/04/17 03:27:22;;;;;;;5.97;2.50;;;15.00;55.10;;;;;;4993507;28;20495;-71
2021/04/17 03:29:47;;;;;;;6.03;2.20;;;15.00;55.10;;;;;;4993816;28;20069;-71
2021/04/17 03:32:13;;;;;;;5.43;2.40;;;15.00;55.10;;;;;;4994058;28;20030;-70
2021/04/17 03:34:38;;;;;;;6.20;2.35;;;15.00;55.10;;;;;;4993283;28;20030;-72
2021/04/17 03:37:04;;;;;;;5.90;2.00;;;15.00;55.10;;;;;;4993836;28;20031;-71
2021/04/17 03:39:29;;;;;;;7.10;2.45;;;15.00;55.20;;;;;;4992595;28;20034;-72
2021/04/17 03:41:55;;;;;;;6.25;2.10;;;15.00;55.20;;;;;;4993025;28;20038;-71
2021/04/17 03:44:21;;;;;;;7.22;2.45;;;14.90;55.20;;;;;;4993544;28;20492;-71
2021/04/17 03:46:46;;;;;;;4.63;2.10;;;14.90;55.20;;;;;;4993390;28;20375;-71
2021/04/17 03:49:12;;;;;;;4.32;2.00;;;14.90;55.30;;;;;;4993458;28;20081;-71
2021/04/17 03:51:38;;;;;;;4.90;2.00;;;14.90;55.70;;;;;;4998915;28;20548;-71
2021/04/17 03:54:03;;;;;;;6.13;2.50;;;14.90;55.30;;;;;;4992930;28;20373;-72
2021/04/17 03:56:29;;;;;;;4.40;2.13;;;14.90;55.50;;;;;;4991305;28;20022;-71
2021/04/17 03:58:54;;;;;;;5.80;2.30;;;14.80;55.50;;;;;;4993792;28;20031;-71
2021/04/17 04:01:20;;;;;;;5.25;2.28;;;14.80;56.00;;;;;;4993139;28;20021;-72
2021/04/17 04:03:45;;;;;;;4.53;2.10;;;14.80;55.60;;;;;;4992628;28;20480;-71
2021/04/17 04:06:11;;;;;;;5.13;1.95;;;14.90;55.50;;;;;;4993175;28;20105;-71
2021/04/17 04:08:36;;;;;;;5.80;2.10;;;14.80;55.50;;;;;;4993410;28;20034;-71
2021/04/17 04:11:02;;;;;;;5.75;2.42;;;14.80;55.50;;;;;;4992658;28;20022;-72
2021/04/17 04:13:28;;;;;;;7.35;2.17;;;14.80;55.50;;;;;;4992808;28;20072;-71
2021/04/17 04:15:53;;;;;;;4.82;2.05;;;14.80;55.50;;;;;;4993362;28;20141;-71
2021/04/17 04:18:19;;;;;;;4.53;1.92;;;14.80;55.50;;;;;;4993200;28;20106;-71
2021/04/17 04:20:44;;;;;;;5.15;2.28;;;14.80;55.50;;;;;;4991374;28;20053;-71
2021/04/17 04:23:10;;;;;;;4.32;1.90;;;14.80;55.50;;;;;;4992600;28;20038;-71
2021/04/17 04:25:36;;;;;;;5.13;2.30;;;14.80;55.50;;;;;;4990850;28;20030;-72
2021/04/17 04:28:01;;;;;;;4.85;2.00;;;14.80;55.50;;;;;;4992293;28;20026;-72
2021/04/17 04:30:27;;;;;;;5.15;2.10;;;14.80;55.50;;;;;;4991459;28;20030;-71
2021/04/17 04:32:53;;;;;;;4.35;2.10;;;14.80;55.50;;;;;;4992491;28;20081;-71
2021/04/17 04:35:19;;;;;;;6.07;1.90;;;14.80;55.50;;;;;;4990880;28;20492;-71
2021/04/17 04:37:44;;;;;;;6.38;2.10;;;14.80;55.50;;;;;;4992852;28;20035;-72
2021/04/17 04:40:11;;;;;;;5.35;2.03;;;14.80;55.50;;;;;;4992299;28;20043;-71
2021/04/17 04:42:37;;;;;;;6.43;2.30;;;14.80;55.40;;;;;;4991469;28;20033;-71
2021/04/17 04:45:05;;;;;;;4.75;2.03;;;14.80;55.50;;;;;;4992240;28;20034;-72
2021/04/17 04:47:31;;;;;;;6.70;2.08;;;14.80;55.50;;;;;;4992660;28;20110;-71
2021/04/17 04:49:56;;;;;;;3.55;1.90;;;14.70;55.50;;;;;;4992515;28;20050;-71
2021/04/17 04:52:22;;;;;;;5.35;2.08;;;14.70;55.40;;;;;;4991361;28;20427;-71
2021/04/17 04:54:47;;;;;;;4.97;2.13;;;14.80;55.50;;;;;;4992321;28;20037;-71
2021/04/17 04:57:13;;;;;;;5.93;2.10;;;14.70;55.40;;;;;;4992101;28;20042;-72
2021/04/17 04:59:38;;;;;;;3.70;1.80;;;14.70;55.50;;;;;;4992408;28;20562;-71
2021/04/17 05:02:04;;;;;;;4.88;2.08;;;14.70;55.40;;;;;;4991445;28;20034;-70
2021/04/17 05:04:30;;;;;;;6.13;2.08;;;14.80;55.50;;;;;;4990585;28;20031;-71
2021/04/17 05:06:56;;;;;;;4.88;2.22;;;14.70;55.30;;;;;;4992463;28;20105;-72
2021/04/17 05:09:22;;;;;;;4.93;1.90;;;14.70;55.40;;;;;;4992078;28;20050;-71
2021/04/17 05:11:47;;;;;;;4.22;2.20;;;14.80;55.40;;;;;;4992187;28;20477;-71
2021/04/17 05:14:13;;;;;;;8.35;2.45;;;14.80;55.20;;;;;;4990545;28;20030;-71
2021/04/17 05:16:38;;;;;;;4.22;1.88;;;14.80;55.20;;;;;;4992153;28;20041;-71
2021/04/17 05:19:04;;;;;;;5.13;2.30;;;14.80;55.10;;;;;;4992151;28;20575;-71
2021/04/17 05:21:29;;;;;;;5.70;2.50;;;14.90;55.30;;;;;;4985733;28;20030;-71
2021/04/17 05:23:56;;;;;;;5.50;2.30;;;14.90;55.20;;;;;;4991639;28;20518;-71
2021/04/17 05:26:21;;;;;;;5.20;2.10;;;14.90;54.80;;;;;;4992132;28;20388;-71
2021/04/17 05:28:47;;;;;;;4.35;2.17;;;15.00;54.70;;;;;;4990265;28;20030;-71
2021/04/17 05:31:13;;;;;;;5.97;2.30;;;15.00;54.70;;;;;;4991510;28;20030;-71
2021/04/17 05:33:38;;;;;;;4.93;1.98;;;15.00;54.50;;;;;;4993594;28;20018;-71
2021/04/17 05:36:04;;;;;;;5.22;2.13;;;15.10;54.60;;;;;;4990157;28;20141;-71
2021/04/17 05:38:30;;;;;;;4.65;2.08;;;15.10;54.20;;;;;;4991001;28;20030;-72
2021/04/17 05:40:56;;;;;;;4.55;2.13;;;15.20;54.10;;;;;;4990782;28;20499;-72
2021/04/17 05:43:22;;;;;;;6.13;2.40;;;15.20;54.10;;;;;;4993458;28;20113;-72
2021/04/17 05:45:47;;;;;;;5.35;2.00;;;15.40;54.20;;;;;;4992699;28;20027;-71
2021/04/17 05:48:13;;;;;;;4.82;2.22;;;15.40;53.70;;;;;;4993315;28;20745;-71
2021/04/17 05:50:39;;;;;;;5.90;2.35;;;15.50;53.60;;;;;;4997863;28;20023;-71
2021/04/17 05:53:04;;;;;;;4.97;2.00;;;15.70;53.30;;;;;;4998411;28;20022;-71
2021/04/17 05:55:30;;;;;;;6.07;2.05;;;15.80;53.00;;;;;;4993693;28;20029;-72
2021/04/17 05:57:56;;;;;;;5.13;1.95;;;15.80;52.90;;;;;;4995164;28;20045;-71
2021/04/17 06:00:22;;;;;;;5.22;2.00;;;15.80;52.70;;;;;;4994398;28;20026;-71
2021/04/17 06:02:48;;;;;;;4.72;1.90;;;15.70;52.70;;;;;;4994452;28;20026;-72
2021/04/17 06:05:13;;;;;;;5.15;2.15;;;15.70;52.80;;;;;;5003355;28;20045;-71
2021/04/17 06:07:39;;;;;;;4.55;2.20;;;15.60;53.40;;;;;;4991004;28;20042;-71
2021/04/17 06:10:06;;;;;;;5.38;2.30;;;15.60;53.70;;;;;;4982186;28;20061;-72
2021/04/17 06:12:31;;;;;;;7.22;2.80;;;15.60;53.90;;;;;;4981414;28;20435;-72
2021/04/17 06:14:57;;;;;;;6.60;2.35;;;15.60;53.80;;;;;;4988350;28;20044;-72
2021/04/17 06:17:23;;;;;;;5.20;2.45;;;15.60;53.60;;;;;;4988741;28;20034;-71
2021/04/17 06:19:48;;;;;;;6.68;2.60;;;15.60;53.50;;;;;;4987291;28;20034;-72
2021/04/17 06:22:14;;;;;;;7.50;2.38;;;15.60;53.30;;;;;;4988166;28;20040;-71
2021/04/17 06:24:39;;;;;;;5.65;2.40;;;15.60;53.20;;;;;;4992760;28;20032;-71
2021/04/17 06:27:05;;;;;;;5.43;2.33;;;15.60;53.00;;;;;;5005574;28;20029;-72
2021/04/17 06:29:31;;;;;;;6.05;2.40;;;15.70;53.00;;;;;;4987377;28;20030;-72
2021/04/17 06:31:56;;;;;;;5.97;2.45;;;15.70;52.90;;;;;;4985991;28;20450;-72
2021/04/17 06:34:22;;;;;;;6.53;2.53;;;15.60;52.80;;;;;;4988148;28;20023;-71
2021/04/17 06:36:49;;;;;;;7.80;2.40;;;15.70;52.80;;;;;;4987563;28;20506;-72
2021/04/17 06:39:14;;;;;;;6.13;2.50;;;15.70;52.80;;;;;;4985640;28;20288;-71
2021/04/17 06:41:43;;;;;;;6.95;3.05;;;15.70;52.60;;;;;;4987148;28;20522;-72
2021/04/17 06:44:11;;;;;;;6.20;2.50;;;15.70;52.60;;;;;;4978437;28;20054;-71
2021/04/17 06:46:38;;;;;;;6.30;2.80;;;15.60;52.60;;;;;;4980632;28;20037;-70
2021/04/17 06:49:07;;;;;;;7.40;2.80;;;15.70;53.10;;;;;;4987602;28;20022;-71
2021/04/17 06:51:35;;;;;;;10.57;3.25;;;15.70;53.50;;;;;;4986566;28;20443;-71
2021/04/17 06:54:02;;;;;;;9.27;2.75;;;15.80;53.80;;;;;;4986141;28;20451;-71
2021/04/17 06:56:27;;;;;;;9.18;2.60;;;15.90;53.50;;;;;;4986552;28;20026;-70
2021/04/17 06:58:54;;;;;;;12.60;2.47;;;15.90;53.30;;;;;;4986136;28;20121;-70
2021/04/17 07:01:19;;;;;;;6.45;2.55;;;16.00;53.10;;;;;;4987070;28;20026;-70
2021/04/17 07:03:47;;;;;;;9.18;4.50;;;16.00;52.40;;;;;;4988041;28;20392;-70
2021/04/17 07:06:13;;;;;;;9.43;3.38;;;16.00;52.10;;;;;;4988265;28;20037;-71
2021/04/17 07:08:40;;;;;;;7.15;2.65;;;16.00;51.80;;;;;;4986893;28;20117;-70
2021/04/17 07:11:06;;;;;;;8.73;2.97;;;16.00;51.50;;;;;;4987752;28;20484;-70
2021/04/17 07:13:34;;;;;;;9.38;2.60;;;16.10;51.30;;;;;;4985828;28;20032;-71
2021/04/17 07:16:08;;;;;;;8.73;2.60;;;16.40;50.80;;;;;;4986376;28;20034;-72
2021/04/17 07:18:36;;;;;;;5.75;2.40;;;16.50;50.40;;;;;;4986638;28;20022;-71
2021/04/17 07:21:13;;;;;;;6.72;2.33;;;16.40;50.30;;;;;;4987084;28;20037;-71
2021/04/17 07:23:44;;;;;;;4.90;2.03;;;16.50;50.30;;;;;;4989753;28;20081;-72
2021/04/17 07:26:14;;;;;;;9.03;3.20;;;16.40;50.30;;;;;;4986151;28;20026;-72
2021/04/17 07:28:55;;;;;;;7.10;2.60;;;16.40;50.60;;;;;;4985357;28;20029;-70
2021/04/17 07:31:25;;;;;;;7.10;2.33;;;16.30;50.60;;;;;;4981635;28;20125;-70
2021/04/17 07:33:54;;;;;;;7.43;2.45;;;16.30;50.70;;;;;;4988655;28;20037;-68
2021/04/17 07:36:21;;;;;;;10.10;2.50;;;16.30;50.80;;;;;;4980893;28;20033;-70
2021/04/17 07:38:47;;;;;;;14.60;3.20;;;16.40;50.80;;;;;;4984981;28;20523;-69
2021/04/17 07:41:18;;;;;;;9.13;2.60;;;16.50;50.80;;;;;;4976314;28;20428;-71
2021/04/17 07:43:51;;;;;;;8.50;2.35;;;16.50;50.60;;;;;;4986195;28;20026;-70
2021/04/17 07:46:21;;;;;;;8.32;2.47;;;16.60;50.50;;;;;;4985660;28;20195;-71
2021/04/17 07:48:48;;;;;;;11.38;2.65;;;16.90;50.10;;;;;;4986556;28;20049;-70
2021/04/17 07:51:14;;;;;;;15.93;3.10;;;17.10;49.70;;;;;;4986749;28;20034;-73
2021/04/17 07:53:42;;;;;;;14.70;2.95;;;17.20;49.30;;;;;;4985748;28;20024;-74
2021/04/17 07:56:35;;;;;;;12.30;3.00;;;17.30;49.10;;;;;;4987024;28;20026;-70
2021/04/17 07:59:04;;;;;;;23.73;3.85;;;17.30;49.10;;;;;;4985560;28;20476;-70
2021/04/17 08:01:32;;;;;;;15.10;3.28;;;17.30;49.20;;;;;;4986360;28;20128;-71
2021/04/17 08:04:00;;;;;;;22.58;3.63;;;17.20;49.40;;;;;;4986842;28;20037;-72
2021/04/17 08:06:27;;;;;;;14.23;2.85;;;17.10;49.90;;;;;;4975884;28;20034;-70
2021/04/17 08:08:53;;;;;;;19.77;2.83;;;17.00;50.20;;;;;;4994699;28;20032;-67
2021/04/17 08:11:21;;;;;;;12.55;3.28;;;17.00;50.80;;;;;;5005940;28;20030;-75
2021/04/17 08:13:48;;;;;;;16.58;3.90;;;16.90;50.50;;;;;;5005315;28;20033;-71
2021/04/17 08:16:15;;;;;;;18.63;4.18;;;16.80;50.90;;;;;;4992725;28;20680;-71
2021/04/17 08:18:42;;;;;;;13.55;3.67;;;16.70;50.20;;;;;;4984734;28;20026;-71
2021/04/17 08:21:08;;;;;;;13.70;3.60;;;16.90;50.60;;;;;;4983671;28;20035;-70
2021/04/17 08:23:35;;;;;;;13.45;3.72;;;17.00;50.60;;;;;;4979141;28;20038;-74
2021/04/17 08:26:02;;;;;;;11.18;3.38;;;17.00;49.60;;;;;;4984632;28;20034;-72
2021/04/17 08:28:28;;;;;;;12.55;4.00;;;17.10;49.50;;;;;;4984821;28;20065;-72
2021/04/17 08:31:19;;;;;;;11.20;3.60;;;17.20;49.10;;;;;;4987014;28;20425;-71
2021/04/17 08:33:44;;;;;;;16.02;4.03;;;17.30;48.90;;;;;;4985984;28;20033;-71
2021/04/17 08:36:10;;;;;;;13.00;3.30;;;17.30;48.80;;;;;;4984714;28;20022;-70
2021/04/17 08:38:36;;;;;;;12.75;3.47;;;17.40;49.00;;;;;;4986401;28;20030;-71
2021/04/17 08:41:02;;;;;;;8.88;3.15;;;17.40;48.70;;;;;;4984277;28;20209;-71
2021/04/17 08:43:30;;;;;;;8.00;3.28;;;17.40;48.70;;;;;;4985154;28;20546;-71
2021/04/17 08:46:11;;;;;;;16.05;3.25;;;17.50;48.70;;;;;;4985536;28;20030;-71
2021/04/17 08:48:48;;;;;;;16.83;3.35;;;17.50;48.70;;;;;;4984694;28;20018;-72
2021/04/17 08:51:22;;;;;;;14.95;3.33;;;17.60;48.80;;;;;;4985539;28;20022;-70
2021/04/17 08:53:49;;;;;;;17.65;3.70;;;17.70;48.40;;;;;;4967860;28;20027;-72
2021/04/17 08:56:15;;;;;;;10.10;3.90;;;17.70;48.40;;;;;;4966643;28;20042;-72
2021/04/17 08:58:40;;;;;;;18.67;3.90;;;17.80;47.80;;;;;;4965774;28;20031;-73
2021/04/17 09:01:10;;;;;;;11.00;3.80;;;17.90;47.50;;;;;;4966824;28;20089;-70
2021/04/17 09:03:40;;;;;;;10.15;3.67;;;18.10;47.30;;;;;;4965918;28;20027;-71
2021/04/17 09:06:08;;;;;;;12.35;3.38;;;18.30;47.00;;;;;;4966497;28;20125;-71
2021/04/17 09:08:38;;;;;;;11.27;3.45;;;18.30;46.90;;;;;;4965488;28;20031;-72
2021/04/17 09:11:33;;;;;;;13.20;3.35;;;18.40;46.50;;;;;;4965714;28;20101;-72
2021/04/17 09:13:59;;;;;;;12.25;3.50;;;18.40;46.30;;;;;;4965017;28;20026;-71
2021/04/17 09:16:51;;;;;;;9.45;3.20;;;18.50;46.20;;;;;;4966876;28;20034;-71
2021/04/17 09:19:43;;;;;;;7.78;2.83;;;18.60;46.10;;;;;;4962840;28;20102;-70
2021/04/17 09:22:31;;;;;;;8.73;3.22;;;18.60;46.10;;;;;;4966476;28;20059;-70
2021/04/17 09:25:03;;;;;;;6.68;2.72;;;18.70;46.20;;;;;;4964818;28;20034;-70
2021/04/17 09:27:34;;;;;;;11.18;3.35;;;18.70;46.10;;;;;;4965003;28;20488;-70
2021/04/17 09:30:15;;;;;;;10.68;2.92;;;18.70;46.00;;;;;;4965046;28;20174;-70
2021/04/17 09:32:47;;;;;;;9.35;3.00;;;18.70;46.00;;;;;;4965127;28;20077;-71
2021/04/17 09:35:15;;;;;;;8.95;3.00;;;18.70;46.00;;;;;;4965171;28;20117;-70
2021/04/17 09:37:44;;;;;;;6.28;2.75;;;18.70;46.00;;;;;;4966353;28;20552;-71
2021/04/17 09:40:11;;;;;;;8.07;3.00;;;18.70;46.00;;;;;;4966485;28;20022;-70
2021/04/17 09:42:37;;;;;;;8.13;2.78;;;18.70;46.20;;;;;;4966314;28;20045;-71
2021/04/17 09:45:10;;;;;;;8.68;2.83;;;18.60;46.30;;;;;;4964409;28;20027;-70
2021/04/17 09:47:35;;;;;;;7.35;2.78;;;18.60;46.50;;;;;;4964845;28;20030;-71
2021/04/17 09:50:01;;;;;;;8.98;2.70;;;18.60;46.50;;;;;;4967032;28;20023;-71
2021/04/17 09:52:27;;;;;;;7.47;3.33;;;18.60;46.50;;;;;;4966128;28;20026;-71
2021/04/17 09:55:01;;;;;;;6.70;2.58;;;18.50;46.50;;;;;;4964611;28;20031;-71
2021/04/17 09:57:28;;;;;;;5.65;2.50;;;18.60;46.60;;;;;;4966121;28;20037;-72
2021/04/17 09:59:55;;;;;;;7.75;2.50;;;18.60;46.60;;;;;;4966333;28;20056;-71
2021/04/17 10:02:22;;;;;;;7.13;2.60;;;18.50;46.70;;;;;;4966362;28;20027;-71
2021/04/17 10:04:58;;;;;;;6.55;2.40;;;18.50;46.90;;;;;;4965186;28;20038;-72
2021/04/17 10:07:24;;;;;;;6.75;2.50;;;18.50;46.90;;;;;;4964781;28;20526;-71
2021/04/17 10:10:02;;;;;;;6.57;2.80;;;18.60;46.70;;;;;;4966236;28;20711;-71
2021/04/17 10:12:28;;;;;;;6.88;2.40;;;18.70;46.50;;;;;;4966122;28;20023;-71
2021/04/17 10:15:13;;;;;;;6.53;2.60;;;18.80;46.30;;;;;;4964257;28;20268;-72
2021/04/17 10:17:38;;;;;;;5.22;2.42;;;18.90;46.10;;;;;;4966231;28;20030;-71
2021/04/17 10:20:05;;;;;;;7.05;2.50;;;18.90;46.00;;;;;;4966031;28;20074;-71
2021/04/17 10:22:30;;;;;;;6.05;2.70;;;18.80;45.90;;;;;;4966147;28;20031;-71
2021/04/17 10:24:56;;;;;;;6.80;2.83;;;18.70;46.10;;;;;;4964451;28;20057;-71
2021/04/17 10:27:24;;;;;;;9.77;2.92;;;18.70;46.30;;;;;;4965033;28;20400;-72
2021/04/17 10:29:52;;;;;;;7.68;2.50;;;18.60;46.10;;;;;;4964964;28;20046;-71
2021/04/17 10:32:19;;;;;;;6.30;2.45;;;18.60;46.00;;;;;;4968336;28;20023;-71
2021/04/17 10:34:49;;;;;;;6.63;2.63;;;18.70;46.40;;;;;;4966980;28;20134;-71
2021/04/17 10:37:20;;;;;;;5.75;2.45;;;18.70;45.60;;;;;;4968591;28;20034;-71
2021/04/17 10:40:04;;;;;;;7.18;2.40;;;18.90;45.40;;;;;;4967675;28;20038;-72
2021/04/17 10:42:54;;;;;;;7.38;2.50;;;19.00;45.30;;;;;;4969729;28;20023;-71
2021/04/17 10:45:23;;;;;;;6.97;2.30;;;19.10;45.30;;;;;;4968142;28;20045;-71
2021/04/17 10:48:05;;;;;;;5.78;2.60;;;19.10;45.30;;;;;;4969906;28;20035;-69
2021/04/17 10:50:52;;;;;;;8.45;2.22;;;19.20;45.10;;;;;;4969518;28;20022;-71
2021/04/17 10:53:31;;;;;;;9.95;2.40;;;19.30;44.90;;;;;;4969658;28;20496;-71
2021/04/17 10:56:00;;;;;;;8.05;2.53;;;19.60;44.40;;;;;;4968570;28;20061;-69
2021/04/17 10:58:33;;;;;;;7.15;2.28;;;19.80;44.10;;;;;;4968679;28;20395;-71
2021/04/17 11:01:03;;;;;;;6.28;2.13;;;19.80;44.00;;;;;;4969765;28;20089;-70
2021/04/17 11:03:46;;;;;;;9.60;2.38;;;20.10;43.90;;;;;;4969062;28;20033;-72
2021/04/17 11:06:29;;;;;;;11.27;2.85;;;21.70;41.50;;;;;;4969384;28;20073;-72
2021/04/17 11:09:19;;;;;;;11.73;2.50;;;22.10;40.10;;;;;;4966483;28;20031;-72
2021/04/17 11:11:59;;;;;;;13.63;2.78;;;21.80;40.50;;;;;;4967836;28;20030;-68
2021/04/17 11:14:26;;;;;;;16.88;3.72;;;22.30;39.50;;;;;;4968899;28;20035;-71
2021/04/17 11:16:53;;;;;;;8.57;2.38;;;21.60;40.70;;;;;;4969441;28;20023;-71
2021/04/17 11:19:30;;;;;;;8.30;2.13;;;21.40;41.10;;;;;;4968031;28;20076;-72
2021/04/17 11:22:23;;;;;;;10.68;2.70;;;23.00;38.70;;;;;;4968213;28;20536;-71
2021/04/17 11:25:02;;;;;;;8.73;2.47;;;24.00;37.00;;;;;;4969033;28;20030;-72
2021/04/17 11:27:28;;;;;;;8.55;2.22;;;24.50;36.00;;;;;;4969147;28;20105;-71
2021/04/17 11:29:54;;;;;;;10.88;2.50;;;24.60;36.10;;;;;;4968164;28;20389;-70
2021/04/17 11:32:20;;;;;;;10.95;2.50;;;24.80;36.10;;;;;;4967649;28;20050;-71
2021/04/17 11:34:46;;;;;;;8.93;2.47;;;23.80;36.40;;;;;;4968642;28;20864;-70
2021/04/17 11:37:13;;;;;;;7.85;2.00;;;23.20;37.30;;;;;;4969001;28;20468;-69
2021/04/17 11:39:39;;;;;;;7.82;2.22;;;22.90;38.10;;;;;;4968924;28;20023;-71
2021/04/17 11:42:05;;;;;;;7.07;2.50;;;23.00;37.70;;;;;;4966609;28;20033;-71
2021/04/17 11:44:31;;;;;;;7.90;2.33;;;23.20;37.80;;;;;;4967083;28;20035;-70
2021/04/17 11:47:00;;;;;;;20.23;2.80;;;23.40;37.00;;;;;;4968522;28;20447;-70
2021/04/17 11:49:25;;;;;;;11.00;2.25;;;22.30;38.90;;;;;;4968495;28;20035;-74
2021/04/17 11:51:51;;;;;;;7.75;2.30;;;22.00;39.40;;;;;;4967397;28;20025;-72
2021/04/17 11:54:17;;;;;;;17.15;3.30;;;22.00;39.90;;;;;;4966852;28;20030;-71
2021/04/17 11:56:42;;;;;;;13.10;2.78;;;21.80;40.30;;;;;;4968782;28;20106;-72
2021/04/17 11:59:08;;;;;;;6.90;1.80;;;22.10;40.20;;;;;;4966215;28;20043;-71
2021/04/17 12:01:34;;;;;;;8.02;2.33;;;22.00;40.40;;;;;;4966333;28;20039;-71
2021/04/17 12:03:59;;;;;;;6.25;2.08;;;21.50;40.70;;;;;;4965537;28;20418;-71
2021/04/17 12:06:28;;;;;;;9.30;2.10;;;21.10;41.10;;;;;;4965957;28;20037;-71
2021/04/17 12:08:58;;;;;;;8.20;1.88;;;21.00;41.70;;;;;;4965761;28;20074;-71
2021/04/17 12:11:25;;;;;;;8.80;2.10;;;20.80;41.60;;;;;;4964432;28;20385;-72
2021/04/17 12:13:50;;;;;;;5.30;1.85;;;20.70;42.00;;;;;;4964433;28;20477;-72
2021/04/17 12:16:16;;;;;;;7.40;2.25;;;20.60;42.30;;;;;;4965766;28;20038;-72
2021/04/17 12:18:42;;;;;;;5.22;1.83;;;20.40;42.50;;;;;;4966621;28;20033;-72
2021/04/17 12:21:08;;;;;;;7.05;1.95;;;20.40;42.60;;;;;;4967677;28;20039;-72
2021/04/17 12:23:34;;;;;;;5.25;1.85;;;20.30;42.60;;;;;;4967108;28;20031;-72
2021/04/17 12:25:59;;;;;;;8.52;2.20;;;20.30;42.70;;;;;;4967176;28;20069;-71
2021/04/17 12:28:25;;;;;;;8.93;2.22;;;20.30;42.80;;;;;;4967372;28;20054;-72
2021/04/17 12:30:55;;;;;;;8.10;2.10;;;20.20;42.20;;;;;;4966239;28;20027;-72
2021/04/17 12:33:22;;;;;;;11.88;2.53;;;20.30;42.60;;;;;;4971323;28;20576;-73
2021/04/17 12:35:48;;;;;;;6.53;1.92;;;20.30;42.70;;;;;;4979490;28;20108;-72
2021/04/17 12:38:14;;;;;;;8.75;1.90;;;20.30;42.70;;;;;;4986915;28;20037;-73
2021/04/17 12:40:41;;;;;;;7.68;2.00;;;20.20;43.00;;;;;;4985803;28;20488;-73
2021/04/17 12:43:08;;;;;;;6.25;2.00;;;20.10;42.90;;;;;;4984952;28;20423;-73
2021/04/17 12:45:35;;;;;;;5.82;1.90;;;20.10;43.10;;;;;;4986545;28;20045;-72
2021/04/17 12:48:01;;;;;;;8.55;2.15;;;20.20;43.20;;;;;;4992971;28;20097;-73
2021/04/17 12:50:26;;;;;;;13.02;2.40;;;20.20;42.70;;;;;;4992609;28;20488;-71